Time;durP1;ratioP1;P1;durP2;ratioP2;P2;SDS_P1;SDS_P2;PMS_P1;PMS_P2;Temp;Humidity;BMP_temperature;BMP_pressure;BME280_temperature;BME280_humidity;BME280_pressure;Samples;Min_cycle;Max_cycle;Signal;HPM_P1;HPM_P2
2023/07/11 00:00:54;;;;;;;;;4.75;3.50;;;;;25.57;40.00;101244.19;5088734;27;45476;-76
2023/07/11 00:03:20;;;;;;;;;2.75;2.75;;;;;25.56;39.58;101246.06;5088015;27;45476;-76
2023/07/11 00:06:01;;;;;;;;;2.00;2.00;;;;;25.58;39.51;101252.25;5095565;27;45512;-76
2023/07/11 00:08:26;;;;;;;;;5.00;5.00;;;;;25.43;39.68;101229.00;5085777;27;46544;-76
2023/07/11 00:10:51;;;;;;;;;5.50;4.50;;;;;25.47;39.40;101241.38;5087493;27;45422;-76
2023/07/11 00:13:17;;;;;;;;;4.50;3.25;;;;;25.41;39.80;101229.13;5087301;27;45423;-76
2023/07/11 00:15:42;;;;;;;;;2.50;2.25;;;;;25.42;40.03;101230.00;5093806;27;48858;-76
2023/07/11 00:18:07;;;;;;;;;4.25;3.00;;;;;25.49;39.50;101247.56;5089346;27;45464;-76
2023/07/11 00:20:33;;;;;;;;;4.25;3.00;;;;;25.44;39.83;101245.28;5092897;27;45436;-76
2023/07/11 00:22:58;;;;;;;;;5.25;4.25;;;;;25.36;39.93;101227.78;5092879;27;45392;-76
2023/07/11 00:25:23;;;;;;;;;3.25;2.25;;;;;25.47;40.50;101247.72;5071485;27;45422;-76
2023/07/11 00:27:49;;;;;;;;;4.25;3.25;;;;;25.31;40.46;101222.75;5088305;27;46182;-76
2023/07/11 00:30:14;;;;;;;;;4.75;3.00;;;;;25.26;39.90;101216.75;5086724;27;50691;-76
2023/07/11 00:32:39;;;;;;;;;3.00;3.00;;;;;25.41;39.95;101244.66;5068029;27;45429;-76
2023/07/11 00:35:05;;;;;;;;;4.50;3.75;;;;;25.16;40.22;101208.53;5093685;27;45444;-76
2023/07/11 00:37:30;;;;;;;;;1.00;1.00;;;;;25.30;39.96;101230.06;5089688;27;46412;-76
2023/07/11 00:39:56;;;;;;;;;2.00;2.00;;;;;25.20;40.31;101222.78;5086446;27;45531;-76
2023/07/11 00:42:21;;;;;;;;;3.50;2.25;;;;;25.14;40.34;101218.69;5086559;27;45361;-76
2023/07/11 00:44:59;;;;;;;;;3.75;2.50;;;;;25.14;40.48;101224.16;5096809;27;45412;-76
2023/07/11 00:47:26;;;;;;;;;2.25;2.25;;;;;25.18;41.06;101233.84;5061702;27;47484;-76
2023/07/11 00:50:07;;;;;;;;;3.00;3.00;;;;;25.07;40.44;101214.78;5091291;27;45307;-76
2023/07/11 00:52:35;;;;;;;;;4.00;3.00;;;;;25.05;40.82;101214.03;5086708;27;45346;-76
2023/07/11 00:55:05;;;;;;;;;2.75;2.75;;;;;25.01;40.96;101208.00;5070991;28;45523;-76
2023/07/11 00:57:36;;;;;;;;;5.00;3.75;;;;;25.05;40.97;101220.38;5094075;27;47804;-76
2023/07/11 01:00:04;;;;;;;;;3.00;3.00;;;;;24.88;40.93;101196.38;5084971;27;45454;-76
2023/07/11 01:02:31;;;;;;;;;2.50;2.00;;;;;24.87;40.94;101202.84;5077284;27;45556;-76
2023/07/11 01:04:58;;;;;;;;;2.25;2.25;;;;;24.91;40.72;101218.84;5095915;27;45386;-76
2023/07/11 01:07:28;;;;;;;;;3.50;2.25;;;;;24.87;41.02;101211.03;5093847;27;46362;-76
2023/07/11 01:09:53;;;;;;;;;3.00;3.00;;;;;25.00;41.33;101236.28;5096594;27;45845;-76
2023/07/11 01:12:20;;;;;;;;;3.00;3.00;;;;;24.88;41.64;101210.03;5083485;27;53657;-76
2023/07/11 01:14:48;;;;;;;;;2.50;2.00;;;;;24.91;41.26;101215.25;5079709;27;45424;-76
2023/07/11 01:17:25;;;;;;;;;3.00;3.00;;;;;25.01;41.68;101229.84;5069471;27;46338;-76
2023/07/11 01:19:52;;;;;;;;;3.00;3.00;;;;;24.81;41.27;101198.78;5080592;27;45647;-76
2023/07/11 01:22:17;;;;;;;;;3.50;3.50;;;;;24.93;41.97;101225.03;5079445;27;45391;-76
2023/07/11 01:24:43;;;;;;;;;4.25;3.50;;;;;24.70;41.68;101196.09;5079485;27;45450;-76
2023/07/11 01:27:08;;;;;;;;;4.75;3.75;;;;;24.69;41.94;101199.81;5087994;27;45448;-76
2023/07/11 01:29:34;;;;;;;;;4.00;4.00;;;;;24.65;41.97;101199.19;5087358;27;45494;-77
2023/07/11 01:31:59;;;;;;;;;3.00;3.00;;;;;24.66;42.38;101209.13;5098995;27;45354;-76
2023/07/11 01:34:25;;;;;;;;;3.50;3.25;;;;;24.61;42.82;101200.47;5099344;27;45535;-76
2023/07/11 01:36:50;;;;;;;;;3.25;2.25;;;;;24.53;42.25;101183.84;5095320;27;46018;-76
2023/07/11 01:39:16;;;;;;;;;3.00;3.00;;;;;24.70;42.35;101221.50;5087168;27;45400;-76
2023/07/11 01:41:42;;;;;;;;;4.50;2.50;;;;;24.67;42.62;101213.56;5065067;28;45445;-76
2023/07/11 01:44:10;;;;;;;;;3.75;3.75;;;;;24.56;42.39;101197.28;5079130;27;45438;-76
2023/07/11 01:46:35;;;;;;;;;3.00;3.00;;;;;24.48;42.36;101186.97;5085681;27;46387;-76
2023/07/11 01:49:02;;;;;;;;;3.50;3.50;;;;;24.48;43.12;101186.97;5096124;27;49899;-76
2023/07/11 01:51:27;;;;;;;;;3.25;3.25;;;;;24.50;42.54;101184.09;5079075;27;45462;-76
2023/07/11 01:53:52;;;;;;;;;4.00;4.00;;;;;24.60;42.75;101210.50;5059990;27;51954;-76
2023/07/11 01:56:18;;;;;;;;;5.00;3.00;;;;;24.44;42.89;101185.50;5091561;27;46252;-76
2023/07/11 01:58:43;;;;;;;;;4.00;4.00;;;;;24.50;42.98;101200.47;5096958;27;45389;-76
2023/07/11 02:01:08;;;;;;;;;4.00;3.50;;;;;24.39;42.86;101174.97;5080394;27;45471;-76
2023/07/11 02:03:34;;;;;;;;;2.75;2.75;;;;;24.33;43.22;101167.28;5092501;27;45594;-76
2023/07/11 02:05:59;;;;;;;;;6.75;5.00;;;;;24.42;43.21;101179.28;5080673;27;46432;-76
2023/07/11 02:08:25;;;;;;;;;3.75;3.75;;;;;24.51;43.35;101194.88;5085141;27;45411;-76
2023/07/11 02:10:50;;;;;;;;;4.00;3.25;;;;;24.39;43.01;101168.63;5060357;28;45670;-76
2023/07/11 02:13:16;;;;;;;;;3.00;1.75;;;;;24.39;43.13;101169.50;5058480;28;45456;-76
2023/07/11 02:15:41;;;;;;;;;4.75;3.00;;;;;24.42;43.60;101171.97;5058194;28;46279;-76
2023/07/11 02:18:07;;;;;;;;;6.25;4.00;;;;;24.34;43.63;101154.50;5058032;28;45478;-76
2023/07/11 02:20:32;;;;;;;;;3.00;3.00;;;;;24.36;43.11;101156.13;5058567;28;45464;-76
2023/07/11 02:22:59;;;;;;;;;5.00;4.00;;;;;24.48;43.37;101181.50;5058413;28;45487;-76
2023/07/11 02:25:25;;;;;;;;;3.00;3.00;;;;;24.47;43.06;101181.63;5058381;28;46335;-76
2023/07/11 02:27:50;;;;;;;;;3.00;3.00;;;;;24.33;43.28;101152.78;5062830;28;45337;-76
2023/07/11 02:30:16;;;;;;;;;5.25;3.50;;;;;24.27;43.64;101145.13;5058493;28;45299;-76
2023/07/11 02:32:42;;;;;;;;;2.00;2.00;;;;;24.27;43.72;101137.78;5057874;28;45411;-76
2023/07/11 02:35:08;;;;;;;;;3.00;3.00;;;;;24.21;43.65;101133.72;5057972;28;45317;-76
2023/07/11 02:37:33;;;;;;;;;2.00;2.00;;;;;24.40;44.20;101165.75;5064142;28;45459;-76
2023/07/11 02:39:58;;;;;;;;;4.00;4.00;;;;;24.22;43.77;101142.75;5066425;28;45442;-76
2023/07/11 02:42:24;;;;;;;;;3.50;3.00;;;;;24.23;44.35;101144.50;5067926;28;45324;-76
2023/07/11 02:44:49;;;;;;;;;3.25;3.25;;;;;24.17;44.01;101135.00;5071603;28;45405;-76
2023/07/11 02:47:14;;;;;;;;;4.00;3.50;;;;;24.10;44.47;101121.97;5062433;28;46175;-76
2023/07/11 02:49:41;;;;;;;;;3.25;3.00;;;;;24.14;44.71;101134.34;5075175;28;45418;-76
2023/07/11 02:52:07;;;;;;;;;3.00;3.00;;;;;24.03;44.65;101125.22;5071493;28;45378;-76
2023/07/11 02:54:33;;;;;;;;;4.00;4.00;;;;;24.11;44.58;101135.50;5064566;27;47073;-76
2023/07/11 02:56:58;;;;;;;;;3.50;3.00;;;;;23.93;44.33;101116.06;5069212;28;45468;-76
2023/07/11 02:59:23;;;;;;;;;5.00;4.00;;;;;23.99;44.68;101131.03;5066640;28;45570;-75
2023/07/11 03:01:49;;;;;;;;;3.25;3.25;;;;;23.91;44.42;101107.16;5066224;28;45495;-76
2023/07/11 03:04:15;;;;;;;;;5.25;3.75;;;;;24.05;44.45;101131.41;5069612;28;45236;-76
2023/07/11 03:06:40;;;;;;;;;4.50;4.50;;;;;24.13;45.06;101151.72;5076179;27;45941;-76
2023/07/11 03:09:05;;;;;;;;;4.00;4.00;;;;;23.96;44.83;101124.00;5081926;27;45413;-76
2023/07/11 03:11:31;;;;;;;;;4.25;4.00;;;;;23.97;44.73;101117.56;5092369;27;45660;-76
2023/07/11 03:13:56;;;;;;;;;3.00;3.00;;;;;23.92;45.10;101110.75;5081067;27;56714;-76
2023/07/11 03:16:21;;;;;;;;;2.00;2.00;;;;;23.99;44.99;101117.41;5081409;27;45500;-76
2023/07/11 03:18:46;;;;;;;;;3.75;3.75;;;;;24.06;45.23;101126.84;5062767;27;46749;-76
2023/07/11 03:21:12;;;;;;;;;3.00;3.00;;;;;24.07;45.23;101124.97;5081614;27;45294;-76
2023/07/11 03:23:37;;;;;;;;;4.75;4.75;;;;;23.94;45.20;101103.28;5078129;27;46294;-76
2023/07/11 03:26:02;;;;;;;;;6.25;4.50;;;;;23.93;45.53;101099.72;5091835;27;45726;-76
2023/07/11 03:28:28;;;;;;;;;4.00;4.00;;;;;24.11;45.53;101126.47;5086801;27;45436;-76
2023/07/11 03:30:53;;;;;;;;;5.00;4.50;;;;;23.97;45.61;101106.66;5088376;27;45353;-76
2023/07/11 03:33:18;;;;;;;;;2.75;2.75;;;;;24.09;45.58;101126.59;5062483;27;50923;-76
2023/07/11 03:35:49;;;;;;;;;4.50;4.25;;;;;23.93;45.88;101094.25;5081274;27;45323;-76
2023/07/11 03:38:14;;;;;;;;;3.00;3.00;;;;;24.01;46.04;101115.44;5087086;27;45318;-76
2023/07/11 03:40:40;;;;;;;;;1.25;1.25;;;;;23.82;45.25;101084.28;5091623;27;45353;-76
2023/07/11 03:43:05;;;;;;;;;7.25;4.00;;;;;23.84;46.04;101092.31;5081077;27;46474;-76
2023/07/11 03:45:30;;;;;;;;;3.00;3.00;;;;;23.83;45.58;101085.13;5081350;27;45306;-76
2023/07/11 03:47:56;;;;;;;;;6.25;4.00;;;;;24.01;45.85;101116.31;5096066;27;45543;-76
2023/07/11 03:50:21;;;;;;;;;3.50;3.50;;;;;23.81;46.20;101081.63;5091703;27;45236;-75
2023/07/11 03:52:46;;;;;;;;;4.25;4.25;;;;;23.99;45.51;101101.06;5080680;27;45291;-76
2023/07/11 03:55:12;;;;;;;;;5.00;4.00;;;;;23.79;46.29;101072.69;5090647;27;45255;-76
2023/07/11 03:57:37;;;;;;;;;4.50;4.50;;;;;24.03;46.33;101111.59;5087210;27;46513;-76
2023/07/11 04:00:03;;;;;;;;;3.00;3.00;;;;;23.89;46.22;101089.19;5069073;28;45539;-76
2023/07/11 04:02:30;;;;;;;;;3.00;3.00;;;;;23.89;46.27;101090.06;5094979;27;45617;-76
2023/07/11 04:04:55;;;;;;;;;5.00;5.00;;;;;23.94;46.40;101095.13;5083613;27;45375;-76
2023/07/11 04:07:21;;;;;;;;;4.75;4.75;;;;;23.91;46.24;101085.34;5084446;27;45511;-76
2023/07/11 04:09:46;;;;;;;;;5.00;4.00;;;;;24.04;46.98;101105.16;5080407;27;45469;-76
2023/07/11 04:12:14;;;;;;;;;1.00;1.00;;;;;23.98;46.85;101100.19;5080470;27;47207;-76
2023/07/11 04:14:40;;;;;;;;;6.00;5.25;;;;;23.91;46.61;101079.91;5082785;27;45562;-76
2023/07/11 04:17:05;;;;;;;;;5.25;4.50;;;;;23.85;46.85;101066.78;5071055;27;45329;-76
2023/07/11 04:19:30;;;;;;;;;6.25;5.75;;;;;23.71;46.87;101056.13;5080646;27;45383;-76
2023/07/11 04:21:56;;;;;;;;;3.50;3.25;;;;;23.80;46.81;101078.03;5080307;27;46331;-76
2023/07/11 04:24:24;;;;;;;;;7.25;5.00;;;;;23.73;47.04;101071.34;5062057;28;45394;-76
2023/07/11 04:26:49;;;;;;;;;4.25;4.00;;;;;23.88;46.94;101085.59;5065219;27;45444;-76
2023/07/11 04:29:14;;;;;;;;;4.00;4.00;;;;;23.86;46.84;101079.41;5082434;27;45500;-76
2023/07/11 04:31:39;;;;;;;;;5.00;5.00;;;;;23.88;47.06;101090.19;5098306;27;45387;-76
2023/07/11 04:34:05;;;;;;;;;4.25;4.25;;;;;23.91;47.17;101100.84;5061754;28;45315;-76
2023/07/11 04:36:31;;;;;;;;;4.75;4.50;;;;;23.75;47.26;101077.53;5074322;27;45513;-76
2023/07/11 04:38:56;;;;;;;;;5.75;5.00;;;;;23.74;47.25;101070.38;5098363;27;45374;-76
2023/07/11 04:41:21;;;;;;;;;5.00;3.00;;;;;23.77;47.29;101086.47;5086813;27;46246;-76
2023/07/11 04:43:47;;;;;;;;;5.00;5.00;;;;;23.73;47.21;101078.69;5100650;27;45361;-75
2023/07/11 04:46:12;;;;;;;;;5.00;4.00;;;;;23.59;47.29;101058.00;5099645;27;45462;-76
2023/07/11 04:48:38;;;;;;;;;5.50;4.50;;;;;23.72;47.30;101091.41;5080089;27;45288;-76
2023/07/11 04:51:06;;;;;;;;;7.00;4.00;;;;;23.58;47.44;101070.75;5079840;27;45350;-76
2023/07/11 04:53:33;;;;;;;;;6.00;4.25;;;;;23.68;47.67;101085.34;5079931;27;45409;-76
2023/07/11 04:56:02;;;;;;;;;4.00;4.00;;;;;23.48;47.83;101057.03;5080255;27;45678;-76
2023/07/11 04:58:29;;;;;;;;;7.50;5.50;;;;;23.47;48.06;101054.41;5098290;27;45421;-76
2023/07/11 05:01:11;;;;;;;;;5.50;4.50;;;;;23.60;47.76;101078.81;5082614;27;45575;-76
2023/07/11 05:03:37;;;;;;;;;6.75;6.75;;;;;23.52;47.57;101064.94;5089602;27;45493;-76
2023/07/11 05:06:04;;;;;;;;;4.75;4.75;;;;;23.49;47.34;101063.34;5097022;27;45460;-76
2023/07/11 05:08:30;;;;;;;;;4.50;4.00;;;;;23.61;48.03;101094.19;5098308;27;45741;-76
2023/07/11 05:11:04;;;;;;;;;5.00;5.00;;;;;23.57;48.14;101079.94;5089142;27;48133;-76
2023/07/11 05:13:32;;;;;;;;;4.50;4.50;;;;;23.51;47.93;101085.03;5079670;27;45436;-76
2023/07/11 05:16:08;;;;;;;;;6.00;6.00;;;;;23.44;48.08;101066.44;5079748;27;45330;-76
2023/07/11 05:18:34;;;;;;;;;4.25;4.25;;;;;23.37;47.95;101070.69;5079015;27;45343;-76
2023/07/11 05:21:00;;;;;;;;;5.00;4.00;;;;;23.44;48.37;101079.22;5072816;27;47545;-75
2023/07/11 05:23:28;;;;;;;;;5.25;4.00;;;;;23.33;48.58;101060.16;5085851;27;45668;-76
2023/07/11 05:25:54;;;;;;;;;4.75;4.75;;;;;23.51;48.37;101087.75;5077836;27;45276;-76
2023/07/11 05:28:20;;;;;;;;;5.00;4.00;;;;;23.51;48.56;101088.63;5096665;27;45271;-75
2023/07/11 05:30:46;;;;;;;;;5.00;5.00;;;;;23.46;48.37;101085.41;5071395;28;47125;-75
2023/07/11 05:33:12;;;;;;;;;4.00;3.25;;;;;23.34;48.62;101061.88;5078882;27;45405;-75
2023/07/11 05:35:45;;;;;;;;;7.00;6.00;;;;;23.45;48.70;101076.34;5079787;27;45252;-75
2023/07/11 05:38:11;;;;;;;;;6.00;4.25;;;;;23.56;48.68;101080.94;5095032;27;45354;-75
2023/07/11 05:40:40;;;;;;;;;3.25;3.25;;;;;23.39;49.21;101046.91;5091343;27;46358;-75
2023/07/11 05:43:06;;;;;;;;;5.00;5.00;;;;;23.42;48.92;101057.53;5061029;27;46268;-77
2023/07/11 05:45:31;;;;;;;;;4.00;4.00;;;;;23.45;49.48;101059.13;5082212;27;45746;-77
2023/07/11 05:47:58;;;;;;;;;3.00;3.00;;;;;23.41;48.53;101049.50;5084852;27;45496;-78
2023/07/11 05:50:24;;;;;;;;;5.25;4.00;;;;;23.45;48.85;101049.09;5060793;28;46222;-77
2023/07/11 05:52:49;;;;;;;;;4.50;3.00;;;;;23.46;48.88;101042.66;5089292;27;45353;-77
2023/07/11 05:55:15;;;;;;;;;5.00;4.00;;;;;23.53;48.26;101042.16;5079369;27;45400;-77
2023/07/11 05:57:40;;;;;;;;;2.00;2.00;;;;;23.54;48.78;101049.34;5089752;27;45378;-77
2023/07/11 06:00:09;;;;;;;;;5.00;4.75;;;;;23.75;49.13;101082.13;5090183;27;45332;-77
2023/07/11 06:02:34;;;;;;;;;4.50;3.50;;;;;23.57;49.09;101039.06;5078630;27;45485;-77
2023/07/11 06:05:00;;;;;;;;;6.00;4.00;;;;;23.80;48.63;101074.44;5091757;27;45740;-76
2023/07/11 06:07:27;;;;;;;;;5.00;3.75;;;;;23.66;49.01;101053.78;5081067;27;45647;-76
2023/07/11 06:09:52;;;;;;;;;5.50;5.00;;;;;23.60;49.13;101041.53;5083320;27;46146;-76
2023/07/11 06:12:18;;;;;;;;;6.00;6.00;;;;;23.62;48.95;101039.56;5084240;27;45361;-76
2023/07/11 06:14:43;;;;;;;;;5.75;3.25;;;;;23.72;49.40;101060.56;5083009;27;45317;-75
2023/07/11 06:17:08;;;;;;;;;3.75;1.00;;;;;23.65;49.00;101043.88;5090546;27;45532;-73
2023/07/11 06:19:35;;;;;;;;;4.75;3.50;;;;;23.75;49.21;101063.06;5073687;27;47151;-68
2023/07/11 06:22:01;;;;;;;;;2.50;2.50;;;;;23.79;49.75;101062.69;5094635;27;45508;-68
2023/07/11 06:24:27;;;;;;;;;5.25;5.00;;;;;23.87;49.46;101072.97;5083511;27;45402;-69
2023/07/11 06:26:52;;;;;;;;;5.25;4.75;;;;;23.76;49.09;101045.72;5084762;27;45593;-69
2023/07/11 06:29:17;;;;;;;;;7.25;4.50;;;;;23.86;49.44;101060.34;5086486;27;45557;-65
2023/07/11 06:31:45;;;;;;;;;3.75;3.00;;;;;23.89;49.52;101057.38;5092411;27;45463;-65
2023/07/11 06:34:10;;;;;;;;;4.25;4.25;;;;;23.92;49.40;101053.50;5096662;27;45405;-65
2023/07/11 06:36:35;;;;;;;;;4.75;4.50;;;;;23.94;49.59;101051.50;5099612;27;45305;-65
2023/07/11 06:39:01;;;;;;;;;5.75;4.00;;;;;23.98;49.78;101062.03;5080993;27;45482;-65
2023/07/11 06:41:28;;;;;;;;;5.00;4.00;;;;;23.96;49.77;101039.47;5100786;27;45411;-65
2023/07/11 06:43:54;;;;;;;;;4.00;4.00;;;;;24.05;49.38;101056.91;5097311;27;46272;-65
2023/07/11 06:46:19;;;;;;;;;4.00;3.25;;;;;24.06;49.41;101039.56;5098265;27;45557;-65
2023/07/11 06:48:44;;;;;;;;;4.00;4.00;;;;;24.08;49.36;101040.31;5096915;27;45338;-65
2023/07/11 06:51:10;;;;;;;;;2.75;2.75;;;;;24.15;49.30;101049.69;5097325;27;45283;-65
2023/07/11 06:53:35;;;;;;;;;2.75;2.25;;;;;24.21;49.45;101048.31;5087360;27;45466;-65
2023/07/11 06:56:01;;;;;;;;;4.50;4.50;;;;;24.26;49.51;101045.16;5095053;27;45248;-65
2023/07/11 06:58:27;;;;;;;;;4.00;4.00;;;;;24.27;49.64;101042.31;5098719;27;46194;-65
2023/07/11 07:01:00;;;;;;;;;3.00;3.00;;;;;24.33;49.32;101047.25;5063398;27;45555;-65
2023/07/11 07:03:25;;;;;;;;;3.00;3.00;;;;;24.37;49.06;101048.75;5090865;27;45663;-65
2023/07/11 07:05:56;;;;;;;;;3.00;3.00;;;;;24.38;49.25;101039.53;5080459;27;45485;-65
2023/07/11 07:08:23;;;;;;;;;2.00;2.00;;;;;24.46;48.61;101043.44;5096073;27;45484;-64
2023/07/11 07:10:49;;;;;;;;;3.50;3.50;;;;;24.46;48.40;101038.88;5083508;27;45560;-64
2023/07/11 07:13:17;;;;;;;;;3.00;3.00;;;;;24.45;48.88;101018.03;5091486;27;45535;-65
2023/07/11 07:15:46;;;;;;;;;4.00;4.00;;;;;24.58;49.04;101031.53;5085866;27;45268;-65
2023/07/11 07:18:11;;;;;;;;;3.00;3.00;;;;;24.64;48.13;101028.28;5101383;27;45723;-65
2023/07/11 07:20:37;;;;;;;;;5.00;4.00;;;;;24.69;48.53;101033.31;5090020;27;45471;-65
2023/07/11 07:23:04;;;;;;;;;5.75;4.75;;;;;24.75;48.26;101033.63;5083550;27;45364;-65
2023/07/11 07:25:30;;;;;;;;;2.50;2.50;;;;;24.81;48.62;101040.44;5091113;27;45342;-66
2023/07/11 07:27:57;;;;;;;;;3.50;3.00;;;;;24.85;48.33;101030.09;5081199;27;46270;-66
2023/07/11 07:30:23;;;;;;;;;3.00;3.00;;;;;24.92;47.93;101037.59;5095981;27;45528;-65
2023/07/11 07:32:48;;;;;;;;;3.00;3.00;;;;;24.98;47.78;101029.88;5095774;27;45593;-63
2023/07/11 07:35:14;;;;;;;;;3.00;3.00;;;;;25.03;47.62;101023.00;5080963;27;45320;-63
2023/07/11 07:37:39;;;;;;;;;3.25;3.25;;;;;25.08;48.14;101020.72;5079642;27;46273;-63
2023/07/11 07:40:06;;;;;;;;;4.75;3.75;;;;;25.10;48.19;101007.78;5089679;27;45515;-63
2023/07/11 07:42:31;;;;;;;;;4.00;3.00;;;;;25.20;47.51;101015.16;5100925;27;45460;-63
2023/07/11 07:44:57;;;;;;;;;2.75;2.75;;;;;25.27;47.87;101014.50;5077933;27;45528;-63
2023/07/11 07:47:22;;;;;;;;;4.00;4.00;;;;;25.33;47.76;101022.13;5080282;27;45418;-63
2023/07/11 07:49:48;;;;;;;;;6.00;3.75;;;;;25.40;47.21;101019.72;5089421;27;45509;-63
2023/07/11 07:52:13;;;;;;;;;3.50;3.50;;;;;25.44;47.12;101018.44;5092836;27;45506;-63
2023/07/11 07:54:38;;;;;;;;;1.75;1.75;;;;;25.51;47.28;101013.28;5080326;27;45513;-63
2023/07/11 07:57:04;;;;;;;;;3.75;2.25;;;;;25.60;47.32;101022.50;5080566;28;46192;-62
2023/07/11 07:59:30;;;;;;;;;5.00;3.75;;;;;25.59;47.46;101001.63;5083460;27;45955;-62
2023/07/11 08:01:56;;;;;;;;;5.25;4.25;;;;;25.71;47.05;101016.91;5079616;27;45400;-63
2023/07/11 08:04:22;;;;;;;;;5.50;4.00;;;;;25.76;46.94;101002.81;5071975;28;46129;-63
2023/07/11 08:06:47;;;;;;;;;4.00;4.00;;;;;25.83;47.24;101003.97;5080456;27;45310;-63
2023/07/11 08:09:12;;;;;;;;;5.50;4.00;;;;;25.91;47.06;101004.13;5088476;27;45409;-63
2023/07/11 08:11:38;;;;;;;;;3.00;3.00;;;;;25.96;46.31;100990.03;5081012;27;46017;-64
2023/07/11 08:14:03;;;;;;;;;2.75;2.25;;;;;26.04;46.25;100984.72;5077024;27;48168;-64
2023/07/11 08:16:29;;;;;;;;;6.25;4.00;;;;;26.04;46.67;100973.78;5081835;27;47201;-64
2023/07/11 08:18:55;;;;;;;;;4.00;4.00;;;;;26.13;46.42;100980.22;5079334;27;45469;-64
2023/07/11 08:21:21;;;;;;;;;2.75;2.75;;;;;26.20;46.63;100979.53;5089754;27;46522;-64
2023/07/11 08:23:46;;;;;;;;;3.75;3.00;;;;;26.27;46.90;100979.81;5092059;27;45358;-64
2023/07/11 08:26:12;;;;;;;;;3.00;3.00;;;;;26.32;46.67;100969.28;5084968;27;46150;-64
2023/07/11 08:28:37;;;;;;;;;5.25;2.50;;;;;26.34;46.13;100958.19;5082772;27;45544;-64
2023/07/11 08:31:04;;;;;;;;;4.25;4.25;;;;;26.44;46.32;100968.09;5078893;27;45416;-64
2023/07/11 08:33:30;;;;;;;;;5.00;4.00;;;;;26.44;46.75;100964.50;5085514;27;45418;-64
2023/07/11 08:35:56;;;;;;;;;3.25;3.25;;;;;26.53;45.59;100963.63;5081823;27;45377;-64
2023/07/11 08:38:22;;;;;;;;;7.25;6.00;;;;;26.60;45.72;100962.00;5089575;27;45534;-64
2023/07/11 08:40:47;;;;;;;;;2.00;2.00;;;;;26.62;45.70;100962.72;5063920;28;45634;-64
2023/07/11 08:43:19;;;;;;;;;5.00;4.00;;;;;26.67;46.08;100969.66;5077655;28;45487;-64
2023/07/11 08:45:55;;;;;;;;;3.00;3.00;;;;;26.76;45.50;100974.22;5089165;27;46759;-64
2023/07/11 08:48:27;;;;;;;;;4.25;3.00;;;;;26.80;45.21;100961.97;5088136;27;45712;-64
2023/07/11 08:51:19;;;;;;;;;2.25;2.25;;;;;26.77;45.01;100952.16;5084153;27;45526;-65
2023/07/11 08:53:57;;;;;;;;;4.50;3.50;;;;;26.81;45.32;100952.72;5083536;27;45778;-65
2023/07/11 08:56:37;;;;;;;;;4.50;3.75;;;;;26.90;45.22;100962.78;5094047;27;45887;-64
2023/07/11 08:59:13;;;;;;;;;5.00;4.00;;;;;26.95;45.05;100954.13;5085756;27;45318;-64
2023/07/11 09:01:54;;;;;;;;;3.25;3.00;;;;;27.01;44.92;100955.41;5081741;27;45642;-64
2023/07/11 09:04:22;;;;;;;;;3.00;3.00;;;;;27.01;44.86;100945.28;5088594;27;45390;-64
2023/07/11 09:06:59;;;;;;;;;5.75;5.75;;;;;27.09;45.06;100947.28;5066495;27;47610;-65
2023/07/11 09:09:25;;;;;;;;;4.00;3.00;;;;;27.15;45.19;100947.53;5089996;27;45532;-64
2023/07/11 09:11:53;;;;;;;;;3.00;3.00;;;;;27.20;45.11;100936.13;5081791;27;45359;-64
2023/07/11 09:14:24;;;;;;;;;5.00;3.00;;;;;27.25;44.77;100939.25;5087783;27;45420;-65
2023/07/11 09:17:01;;;;;;;;;5.00;3.00;;;;;27.29;45.18;100932.47;5086022;27;45814;-64
2023/07/11 09:20:00;;;;;;;;;7.00;6.00;;;;;27.29;45.27;100915.16;5090991;27;45611;-64
2023/07/11 09:22:34;;;;;;;;;6.25;4.25;;;;;27.39;44.67;100940.63;5089721;27;45397;-65
2023/07/11 09:25:12;;;;;;;;;5.25;4.25;;;;;27.39;44.50;100906.88;5083288;27;45350;-64
2023/07/11 09:27:44;;;;;;;;;5.25;4.75;;;;;27.45;44.65;100919.94;5066570;28;48221;-65
2023/07/11 09:30:21;;;;;;;;;4.75;4.00;;;;;27.48;44.33;100927.88;5086194;27;45468;-64
2023/07/11 09:32:47;;;;;;;;;6.00;4.00;;;;;27.49;44.22;100921.38;5077715;27;45372;-65
2023/07/11 09:35:32;;;;;;;;;5.00;4.00;;;;;27.52;44.52;100913.69;5092144;27;46796;-64
2023/07/11 09:38:05;;;;;;;;;6.00;5.00;;;;;27.62;44.26;100918.25;5087287;27;45545;-63
2023/07/11 09:40:39;;;;;;;;;4.00;3.00;;;;;27.67;44.20;100918.66;5078232;27;45343;-64
2023/07/11 09:43:05;;;;;;;;;5.00;5.00;;;;;27.69;44.78;100911.97;5094023;27;45579;-65
2023/07/11 09:45:36;;;;;;;;;4.00;4.00;;;;;27.73;44.20;100907.03;5088382;27;45535;-65
2023/07/11 09:48:28;;;;;;;;;4.25;4.25;;;;;27.78;43.71;100898.34;5086833;27;46024;-65
2023/07/11 09:51:11;;;;;;;;;4.75;4.75;;;;;27.83;43.73;100899.59;5086200;27;45545;-65
2023/07/11 09:53:45;;;;;;;;;6.00;5.00;;;;;27.85;43.53;100893.94;5079219;27;45531;-65
2023/07/11 09:56:16;;;;;;;;;6.75;5.00;;;;;27.87;44.35;100894.66;5083047;27;45333;-65
2023/07/11 09:58:48;;;;;;;;;7.25;5.00;;;;;27.91;44.11;100893.28;5083938;27;45614;-64
2023/07/11 10:01:25;;;;;;;;;4.25;4.25;;;;;27.96;44.09;100885.47;5089597;27;45701;-65
2023/07/11 10:03:54;;;;;;;;;6.25;4.50;;;;;28.02;43.73;100887.59;5085629;27;45549;-65
2023/07/11 10:06:39;;;;;;;;;5.25;4.50;;;;;28.04;43.56;100874.56;5094521;27;45520;-64
2023/07/11 10:09:20;;;;;;;;;5.00;5.00;;;;;28.11;44.02;100871.19;5078062;27;46687;-64
2023/07/11 10:11:55;;;;;;;;;3.25;2.25;;;;;28.14;42.97;100865.38;5085611;27;45533;-64
2023/07/11 10:14:25;;;;;;;;;4.25;3.75;;;;;28.16;42.86;100857.84;5088740;27;45648;-64
2023/07/11 10:16:51;;;;;;;;;6.00;5.00;;;;;28.19;43.17;100858.38;5092394;27;45398;-64
2023/07/11 10:19:17;;;;;;;;;3.75;3.50;;;;;28.24;42.87;100868.88;5077078;27;46311;-65
2023/07/11 10:21:50;;;;;;;;;5.25;4.25;;;;;28.24;42.86;100849.66;5082431;27;46263;-65
2023/07/11 10:24:22;;;;;;;;;4.75;4.75;;;;;28.29;43.06;100844.53;5091316;27;45404;-65
2023/07/11 10:26:51;;;;;;;;;4.25;4.25;;;;;28.34;42.40;100855.03;5081440;27;45371;-64
2023/07/11 10:29:21;;;;;;;;;5.50;5.00;;;;;28.35;42.48;100845.75;5079729;27;46228;-64
2023/07/11 10:31:54;;;;;;;;;4.75;4.75;;;;;28.40;42.05;100844.28;5081193;27;46105;-64
2023/07/11 10:34:56;;;;;;;;;3.00;3.00;;;;;28.42;41.64;100847.69;5087147;27;45767;-65
2023/07/11 10:37:30;;;;;;;;;3.00;3.00;;;;;28.51;41.55;100850.50;5081756;27;45409;-65
2023/07/11 10:40:11;;;;;;;;;6.00;5.00;;;;;28.55;42.52;100852.75;5069217;28;46599;-65
2023/07/11 10:43:13;;;;;;;;;5.00;3.75;;;;;28.64;41.63;100845.44;5082740;27;46446;-65
2023/07/11 10:45:45;;;;;;;;;4.00;4.00;;;;;28.69;42.01;100840.31;5087909;27;45548;-65
2023/07/11 10:48:32;;;;;;;;;7.50;7.50;;;;;28.73;41.00;100841.69;5085697;27;45481;-65
2023/07/11 10:51:01;;;;;;;;;4.75;4.25;;;;;28.77;41.75;100840.34;5082859;27;46603;-64
2023/07/11 10:53:39;;;;;;;;;4.25;4.25;;;;;28.77;41.19;100818.34;5072670;28;45686;-65
2023/07/11 10:56:11;;;;;;;;;5.00;4.00;;;;;28.88;40.97;100813.56;5093894;27;45493;-65
2023/07/11 10:58:36;;;;;;;;;7.75;7.25;;;;;28.91;40.34;100813.25;5073492;27;45337;-65
2023/07/11 11:01:20;;;;;;;;;6.00;5.00;;;;;28.92;40.96;100803.97;5073313;27;45753;-65
2023/07/11 11:03:47;;;;;;;;;4.00;4.00;;;;;28.92;40.74;100795.72;5088737;27;45494;-64
2023/07/11 11:06:41;;;;;;;;;4.00;4.00;;;;;29.01;40.70;100800.22;5095235;27;45427;-65
2023/07/11 11:09:13;;;;;;;;;5.75;5.75;;;;;29.07;40.34;100788.56;5063967;27;45968;-64
2023/07/11 11:12:02;;;;;;;;;5.25;4.00;;;;;29.14;39.78;100785.97;5097960;27;46146;-64
2023/07/11 11:14:34;;;;;;;;;3.75;3.75;;;;;29.17;40.07;100777.44;5081308;27;45425;-65
2023/07/11 11:17:29;;;;;;;;;3.25;3.25;;;;;29.23;40.21;100781.38;5084115;27;45485;-65
2023/07/11 11:20:43;;;;;;;;;4.50;4.50;;;;;29.25;38.83;100782.06;5069470;28;45417;-65
2023/07/11 11:23:27;;;;;;;;;8.75;7.50;;;;;29.35;39.55;100780.00;5064416;27;45555;-65
2023/07/11 11:25:55;;;;;;;;;4.25;4.25;;;;;29.35;39.06;100780.00;5081725;27;46282;-65
2023/07/11 11:28:40;;;;;;;;;5.00;3.75;;;;;29.39;39.17;100775.88;5097951;27;45430;-65
2023/07/11 11:31:21;;;;;;;;;3.25;3.25;;;;;29.47;39.48;100773.13;5075552;27;45644;-65